Terminal Aerodrome Forecast
Issued by NWS Wakefield, VA

Home | Current Version | Previous Version | Text Only | Print | Product List | Glossary On
Versions: 1 2 3 4 5 6 7 8 9 10 11 12
714
FTUS41 KAKQ 281728
TAFSBY
TAF
KSBY 281728Z 2818/2918 18008KT P6SM SKC
     FM290400 17004KT P6SM BKN120
     FM290700 VRB03KT 3SM BR BKN006
     FM291000 VRB03KT 2SM BR OVC004
     FM291600 16007KT 4SM BR VCSH OVC015=

USA.gov is the U.S. government's official web portal to all federal, state and local government web resources and services.